.
WxDataArchive / Data Records for 2008-08-16
2008-08-15 August 2008 2008-08-17

Data Records for Saturday, 16 August 2008

Time	Temp	Chill	HIndex	Humid	Dewpt	 Wind 	HiWind	WindDir	Rain 	Barom 
-----	----	-----	------	-----	-----	------	------	-------	-----	----- 
00:00	63.2	63.2	63.2	77	55.9	0	0	---	0.00	30.089 
00:05	63.1	63.1	63.1	77	55.8	0	0	---	0.00	30.090 
00:10	62.9	62.9	62.9	78	55.9	0	0	---	0.00	30.091 
00:15	62.7	62.7	62.7	78	55.7	0	0	---	0.00	30.090 
00:20	62.6	62.6	62.6	79	56.0	0	0	---	0.00	30.086 
00:25	62.4	62.4	62.4	79	55.8	0	1	0	0.00	30.086 
00:30	62.3	62.3	62.3	79	55.7	0	0	---	0.00	30.086 
00:35	62.1	62.1	62.1	80	55.9	0	0	---	0.00	30.085 
00:40	62.0	62.0	62.0	80	55.8	0	0	---	0.00	30.084 
00:45	61.8	61.8	61.8	81	55.9	0	0	---	0.00	30.082 
00:50	61.6	61.6	61.6	81	55.7	0	0	---	0.00	30.083 
00:55	61.3	61.3	61.3	81	55.4	0	0	---	0.00	30.081 
01:00	61.2	61.2	61.2	81	55.3	0	0	---	0.00	30.084 
01:05	60.9	60.9	60.9	82	55.4	0	0	---	0.00	30.082 
01:10	60.5	60.5	60.5	82	55.0	0	0	---	0.00	30.082 
01:15	60.4	60.4	60.4	82	54.9	0	0	---	0.00	30.083 
01:20	60.1	60.1	60.1	83	54.9	0	0	---	0.00	30.083 
01:25	59.9	59.9	59.9	83	54.7	0	0	---	0.00	30.082 
01:30	59.8	59.8	59.8	84	55.0	0	0	---	0.00	30.082 
01:35	59.5	59.5	59.5	84	54.7	0	0	---	0.00	30.082 
01:40	59.3	59.3	59.3	85	54.8	0	0	---	0.00	30.084 
01:45	59.2	59.2	59.2	85	54.7	0	0	---	0.00	30.084 
01:50	59.0	59.0	59.0	86	54.8	0	0	---	0.00	30.084 
01:55	58.7	58.7	58.7	86	54.5	0	0	---	0.00	30.083 
02:00	58.6	58.6	58.6	87	54.7	0	0	---	0.00	30.083 
02:05	58.4	58.4	58.4	88	54.9	0	0	---	0.00	30.084 
02:10	58.4	58.4	58.4	88	54.9	0	0	---	0.00	30.084 
02:15	58.4	58.4	58.4	89	55.2	0	0	---	0.00	30.085 
02:20	58.3	58.3	58.3	89	55.1	0	0	---	0.00	30.085 
02:25	58.1	58.1	58.1	89	54.9	0	0	---	0.00	30.084 
02:30	58.1	58.1	58.1	89	54.9	0	0	---	0.00	30.084 
02:35	58.0	58.0	58.0	89	54.8	0	0	---	0.00	30.084 
02:40	58.0	58.0	58.0	90	55.1	0	0	---	0.00	30.084 
02:45	57.8	57.8	57.8	90	54.9	0	0	---	0.00	30.084 
02:50	57.6	57.6	57.6	90	54.7	0	0	---	0.00	30.084 
02:55	57.5	57.5	57.5	90	54.6	0	0	---	0.00	30.084 
03:00	57.5	57.5	57.5	90	54.6	0	0	---	0.00	30.086 
03:05	57.3	57.3	57.3	90	54.4	0	0	---	0.00	30.087 
03:10	57.2	57.2	57.2	90	54.3	0	0	---	0.00	30.086 
03:15	57.0	57.0	57.0	91	54.4	0	0	---	0.00	30.087 
03:20	57.0	57.0	57.0	91	54.4	0	0	---	0.00	30.087 
03:25	57.0	57.0	57.0	91	54.4	0	0	---	0.00	30.087 
03:30	56.9	56.9	56.9	92	54.6	0	0	---	0.00	30.087 
03:35	56.9	56.9	56.9	92	54.6	0	0	---	0.00	30.087 
03:40	56.9	56.9	56.9	92	54.6	0	0	---	0.00	30.086 
03:45	56.7	56.7	56.7	92	54.4	0	0	---	0.00	30.086 
03:50	56.7	56.7	56.7	92	54.4	0	0	---	0.00	30.087 
03:55	56.7	56.7	56.7	92	54.4	0	0	---	0.00	30.087 
04:00	56.6	56.6	56.6	92	54.3	0	0	---	0.00	30.088 
04:05	56.5	56.5	56.5	92	54.2	0	0	---	0.00	30.087 
04:10	56.5	56.5	56.5	92	54.2	0	0	---	0.00	30.086 
04:15	56.3	56.3	56.3	93	54.3	0	0	---	0.00	30.086 
04:20	56.3	56.3	56.3	93	54.3	0	0	---	0.00	30.087 
04:25	56.3	56.3	56.3	93	54.3	0	0	---	0.00	30.087 
04:30	56.3	56.3	56.3	93	54.3	0	0	---	0.00	30.087 
04:35	56.3	56.3	56.3	93	54.3	0	0	---	0.00	30.087 
04:40	56.2	56.2	56.2	93	54.2	0	0	---	0.00	30.087 
04:45	56.0	56.0	56.0	93	54.0	0	0	---	0.00	30.088 
04:50	56.0	56.0	56.0	93	54.0	0	0	---	0.00	30.087 
04:55	55.9	55.9	55.9	93	53.9	0	0	---	0.00	30.088 
05:00	55.9	55.9	55.9	93	53.9	0	0	---	0.00	30.088 
05:05	55.9	55.9	55.9	94	54.2	0	0	---	0.00	30.089 
05:10	55.7	55.7	55.7	94	54.0	0	0	---	0.00	30.090 
05:15	55.7	55.7	55.7	94	54.0	0	0	---	0.00	30.090 
05:20	55.6	55.6	55.6	94	53.9	0	0	---	0.00	30.090 
05:25	55.6	55.6	55.6	94	53.9	0	0	---	0.00	30.091 
05:30	55.4	55.4	55.4	94	53.7	0	0	---	0.00	30.095 
05:35	55.3	55.3	55.3	94	53.6	0	0	---	0.00	30.096 
05:40	55.3	55.3	55.3	94	53.6	0	0	---	0.00	30.096 
05:45	55.3	55.3	55.3	94	53.6	0	0	---	0.00	30.098 
05:50	55.3	55.3	55.3	94	53.6	0	0	---	0.00	30.101 
05:55	55.1	55.1	55.1	94	53.4	0	0	---	0.00	30.101 
06:00	55.1	55.1	55.1	94	53.4	0	0	---	0.00	30.100 
06:05	55.1	55.1	55.1	94	53.4	0	0	---	0.00	30.099 
06:10	55.1	55.1	55.1	94	53.4	0	0	---	0.00	30.100 
06:15	55.1	55.1	55.1	95	53.7	0	0	---	0.00	30.101 
06:20	55.3	55.3	55.3	95	53.9	0	0	---	0.00	30.103 
06:25	55.4	55.4	55.4	95	54.0	0	0	---	0.00	30.102 
06:30	55.6	55.6	55.6	95	54.2	0	0	---	0.00	30.102 
06:35	55.9	55.9	55.9	95	54.5	0	0	---	0.00	30.101 
06:40	56.3	56.3	56.3	95	54.9	0	0	---	0.00	30.102 
06:45	56.7	56.7	56.7	95	55.3	0	0	---	0.00	30.101 
06:50	57.0	57.0	57.0	95	55.6	0	0	---	0.00	30.102 
06:55	57.5	57.5	57.5	95	56.1	0	0	---	0.00	30.102 
07:00	58.1	58.1	58.1	94	56.4	0	0	---	0.00	30.101 
07:05	58.6	58.6	58.6	94	56.9	0	1	0	0.00	30.104 
07:10	58.9	58.9	58.9	93	56.9	0	1	0	0.00	30.106 
07:15	59.5	59.5	59.5	92	57.2	0	0	---	0.00	30.105 
07:20	59.9	59.9	59.9	90	57.0	0	0	---	0.00	30.104 
07:25	60.5	60.5	60.5	89	57.2	0	0	---	0.00	30.104 
07:30	61.0	61.0	61.0	87	57.1	0	1	0	0.00	30.104 
07:35	61.6	61.6	61.6	86	57.4	0	1	0	0.00	30.105 
07:40	62.3	62.3	62.3	84	57.4	0	0	---	0.00	30.105 
07:45	62.7	62.7	62.7	82	57.1	0	1	0	0.00	30.104 
07:50	63.2	63.2	63.2	81	57.3	0	1	0	0.00	30.106 
07:55	63.5	63.5	63.5	81	57.6	0	1	0	0.00	30.107 
08:00	64.0	64.0	64.0	80	57.7	0	1	0	0.00	30.109 
08:05	64.5	64.5	64.5	79	57.8	0	1	0	0.00	30.115 
08:10	65.0	65.0	65.0	78	58.0	0	1	0	0.00	30.115 
08:15	65.3	65.3	65.3	77	57.9	0	1	0	0.00	30.114 
08:20	65.8	65.8	65.8	77	58.4	0	1	0	0.00	30.112 
08:25	66.4	66.4	66.4	76	58.6	0	1	0	0.00	30.114 
08:30	67.1	67.1	67.1	74	58.5	0	2	0	0.00	30.114 
08:35	67.6	67.6	67.6	74	59.0	0	1	0	0.00	30.113 
08:40	68.3	68.3	68.3	73	59.3	0	1	0	0.00	30.112 
08:45	68.9	68.9	68.9	73	59.9	0	1	0	0.00	30.111 
08:50	69.6	69.6	69.6	72	60.2	0	1	0	0.00	30.110 
08:55	70.1	70.1	70.1	69	59.4	0	3	270	0.00	30.108 
09:00	70.4	70.4	70.4	70	60.1	0	2	270	0.00	30.108 
09:05	70.8	70.8	70.8	66	58.9	0	3	270	0.00	30.110 
09:10	70.9	70.9	70.9	65	58.5	1	3	270	0.00	30.109 
09:15	71.3	71.3	71.3	63	58.0	1	2	270	0.00	30.109 
09:20	71.5	71.5	71.5	64	58.7	1	3	270	0.00	30.108 
09:25	72.0	72.0	72.0	65	59.6	0	1	270	0.00	30.109 
09:30	72.8	72.8	72.8	62	59.0	0	1	270	0.00	30.105 
09:35	73.0	73.0	73.0	60	58.3	0	1	270	0.00	30.105 
09:40	73.5	73.5	73.5	61	59.2	0	2	270	0.00	30.105 
09:45	74.0	74.0	74.0	58	58.3	0	2	270	0.00	30.106 
09:50	74.4	74.4	74.4	56	57.7	0	2	270	0.00	30.107 
09:55	74.6	74.6	74.6	58	58.8	1	2	292	0.00	30.108 
10:00	74.9	74.9	74.9	57	58.6	1	3	292	0.00	30.108 
10:05	75.4	75.4	77.7	57	59.1	0	1	315	0.00	30.109 
10:10	75.4	75.4	77.8	53	57.1	1	2	315	0.00	30.109 
10:15	75.8	75.8	78.0	53	57.4	0	2	315	0.00	30.107 
10:20	76.5	76.5	78.4	53	58.1	1	3	22	0.00	30.108 
10:25	77.2	77.2	78.7	51	57.6	1	4	112	0.00	30.107 
10:30	77.6	77.6	78.9	48	56.3	1	2	112	0.00	30.105 
10:35	77.4	77.4	78.8	49	56.7	0	2	45	0.00	30.108 
10:40	77.2	77.2	78.7	48	56.0	0	2	22	0.00	30.108 
10:45	77.0	77.0	78.6	49	56.4	1	3	315	0.00	30.107 
10:50	76.8	76.8	78.4	47	55.0	1	2	315	0.00	30.106 
10:55	77.2	77.2	78.6	47	55.4	0	3	0	0.00	30.106 
11:00	77.4	77.4	78.7	46	55.0	1	4	270	0.00	30.106 
11:05	77.4	77.4	78.7	46	55.0	1	3	270	0.00	30.104 
11:10	77.2	77.2	78.7	48	56.0	0	3	270	0.00	30.102 
11:15	77.4	77.4	78.7	47	55.6	0	1	0	0.00	30.098 
11:20	77.9	77.9	79.0	46	55.4	0	2	0	0.00	30.098 
11:25	78.3	78.3	79.1	44	54.6	1	4	270	0.00	30.097 
11:30	78.3	78.3	79.1	43	53.9	1	4	270	0.00	30.096 
11:35	78.5	78.5	78.9	38	50.8	1	3	315	0.00	30.096 
11:40	78.5	78.5	78.9	39	51.5	1	3	315	0.00	30.094 
11:45	78.6	78.6	79.0	40	52.2	0	2	315	0.00	30.092 
11:50	79.0	79.0	79.2	39	51.9	1	4	0	0.00	30.093 
11:55	79.0	79.0	79.0	35	49.0	1	2	315	0.00	30.092 
12:00	79.2	79.2	79.2	37	50.7	1	6	158	0.00	30.090 
12:05	79.8	79.8	79.7	39	52.6	0	2	315	0.00	30.087 
12:10	80.1	80.1	79.8	37	51.5	1	3	315	0.00	30.085 
12:15	80.1	80.1	79.8	37	51.5	0	2	292	0.00	30.085 
12:20	80.1	80.1	79.6	35	50.0	1	3	90	0.00	30.084 
12:25	80.1	80.1	79.5	34	49.2	1	3	22	0.00	30.085 
12:30	79.9	79.9	79.6	36	50.5	1	3	22	0.00	30.083 
12:35	80.1	80.1	79.5	34	49.2	1	3	292	0.00	30.082 
12:40	79.9	79.9	79.6	37	51.3	1	3	292	0.00	30.082 
12:45	80.1	80.1	79.8	37	51.5	0	2	292	0.00	30.081 
12:50	80.3	80.3	79.7	35	50.1	1	4	292	0.00	30.081 
12:55	80.3	80.3	79.7	34	49.3	1	3	248	0.00	30.081 
13:00	80.3	80.3	79.7	35	50.1	0	2	292	0.00	30.079 
13:05	81.1	81.1	80.5	38	53.1	1	3	292	0.00	30.077 
13:10	81.4	81.4	80.4	34	50.3	1	2	315	0.00	30.076 
13:15	81.1	81.1	80.3	35	50.8	1	3	315	0.00	30.070 
13:20	80.9	80.9	80.1	35	50.7	1	3	292	0.00	30.070 
13:25	80.7	80.7	79.8	33	48.9	1	4	292	0.00	30.069 
13:30	80.5	80.5	79.6	31	47.1	1	3	292	0.00	30.069 
13:35	80.9	80.9	80.1	35	50.7	0	2	292	0.00	30.065 
13:40	80.5	80.5	79.7	33	48.7	1	4	270	0.00	30.066 
13:45	80.9	80.9	80.1	34	49.9	0	1	270	0.00	30.064 
13:50	81.2	81.2	80.5	37	52.4	1	4	315	0.00	30.061 
13:55	81.6	81.6	80.5	33	49.7	0	3	22	0.00	30.062 
14:00	82.0	82.0	80.9	35	51.6	0	2	22	0.00	30.058 
14:05	82.4	82.4	81.1	34	51.2	0	2	0	0.00	30.057 
14:10	82.2	82.2	81.0	34	51.0	1	3	292	0.00	30.057 
14:15	81.8	81.8	80.5	32	49.0	1	2	0	0.00	30.057 
14:20	81.4	81.4	80.3	33	49.5	1	2	338	0.00	30.057 
14:25	81.2	81.2	80.2	33	49.3	1	3	315	0.00	30.053 
14:30	81.2	81.2	80.3	34	50.1	1	3	315	0.00	30.052 
14:35	81.4	81.4	80.2	32	48.7	1	3	315	0.00	30.051 
14:40	81.6	81.6	80.5	33	49.7	0	2	315	0.00	30.050 
14:45	81.4	81.4	80.3	33	49.5	1	4	248	0.00	30.049 
14:50	80.5	80.5	79.9	35	50.3	0	2	0	0.00	30.049 
14:55	79.8	79.8	79.6	38	51.9	0	2	0	0.00	30.048 
15:00	79.6	79.6	79.4	37	51.0	0	2	0	0.00	30.045 
15:05	80.3	80.3	79.8	36	50.9	1	4	270	0.00	30.047 
15:10	80.7	80.7	80.0	35	50.5	1	5	270	0.00	30.045 
15:15	81.1	81.1	80.4	37	52.3	1	4	248	0.00	30.043 
15:20	81.1	81.1	80.3	35	50.8	1	3	0	0.00	30.041 
15:25	81.1	81.1	80.4	36	51.6	1	3	338	0.00	30.038 
15:30	81.2	81.2	80.5	37	52.4	0	2	292	0.00	30.036 
15:35	81.4	81.4	80.5	35	51.1	0	2	315	0.00	30.036 
15:40	81.6	81.6	80.6	35	51.3	0	2	315	0.00	30.036 
15:45	81.6	81.6	80.5	33	49.7	0	2	292	0.00	30.031 
15:50	81.4	81.4	80.6	36	51.9	0	2	292	0.00	30.033 
15:55	80.9	80.9	80.1	35	50.7	1	2	270	0.00	30.032 
16:00	80.5	80.5	79.9	36	51.1	1	2	270	0.00	30.029 
16:05	79.8	79.8	79.5	36	50.4	0	2	270	0.00	30.029 
16:10	79.2	79.2	79.2	37	50.7	1	3	270	0.00	30.030 
16:15	79.4	79.4	79.2	35	49.3	1	4	270	0.00	30.029 
16:20	80.1	80.1	79.5	34	49.2	1	2	338	0.00	30.025 
16:25	80.5	80.5	79.9	35	50.3	0	1	338	0.00	30.024 
16:30	80.5	80.5	79.9	36	51.1	0	1	338	0.00	30.023 
16:35	80.5	80.5	79.7	33	48.7	0	3	338	0.00	30.021 
16:40	80.3	80.3	79.7	35	50.1	0	2	0	0.00	30.020 
16:45	80.3	80.3	79.7	35	50.1	1	3	315	0.00	30.018 
16:50	80.5	80.5	79.8	34	49.5	1	3	315	0.00	30.018 
16:55	80.7	80.7	80.0	35	50.5	1	3	292	0.00	30.016 
17:00	80.5	80.5	79.8	34	49.5	1	3	315	0.00	30.014 
17:05	80.3	80.3	79.9	37	51.6	0	2	315	0.00	30.017 
17:10	80.1	80.1	79.8	37	51.5	0	1	315	0.00	30.016 
17:15	80.3	80.3	79.9	37	51.6	0	2	315	0.00	30.019 
17:20	80.5	80.5	80.0	37	51.8	2	4	315	0.00	30.017 
17:25	80.1	80.1	80.0	40	53.6	2	5	270	0.00	30.019 
17:30	79.6	79.6	79.7	40	53.1	1	3	270	0.00	30.017 
17:35	79.2	79.2	79.5	41	53.4	1	3	292	0.00	30.016 
17:40	79.2	79.2	79.5	42	54.1	1	4	292	0.00	30.014 
17:45	79.4	79.4	79.7	42	54.3	2	4	315	0.00	30.012 
17:50	79.4	79.4	79.6	41	53.6	2	5	270	0.00	30.014 
17:55	79.0	79.0	79.4	42	53.9	1	3	270	0.00	30.015 
18:00	78.6	78.6	79.2	42	53.6	1	3	270	0.00	30.013 
18:05	78.6	78.6	79.2	43	54.2	1	4	270	0.00	30.012 
18:10	78.5	78.5	79.1	42	53.5	2	4	270	0.00	30.011 
18:15	78.3	78.3	79.1	43	53.9	1	2	270	0.00	30.008 
18:20	78.1	78.1	78.9	43	53.8	1	4	292	0.00	30.007 
18:25	77.9	77.9	78.8	43	53.6	1	4	270	0.00	30.006 
18:30	77.7	77.7	78.8	44	54.0	1	2	270	0.00	30.005 
18:35	77.6	77.6	78.7	44	53.9	1	4	270	0.00	30.005 
18:40	77.4	77.4	78.6	44	53.8	1	3	315	0.00	30.006 
18:45	77.2	77.2	78.5	44	53.6	1	5	292	0.00	30.006 
18:50	77.0	77.0	78.4	44	53.4	1	3	270	0.00	30.005 
18:55	76.8	76.8	78.3	45	53.8	1	2	270	0.00	30.005 
19:00	76.5	76.5	78.2	46	54.2	1	2	270	0.00	30.006 
19:05	76.3	76.3	78.1	46	54.0	0	2	270	0.00	30.001 
19:10	76.0	76.0	78.0	46	53.7	0	2	270	0.00	30.001 
19:15	75.8	75.8	77.9	46	53.5	0	1	270	0.00	30.001 
19:20	75.3	75.3	77.7	46	53.1	1	3	292	0.00	30.003 
19:25	75.1	75.1	77.7	46	52.9	1	2	292	0.00	30.003 
19:30	74.7	74.7	74.7	46	52.5	0	2	292	0.00	30.004 
19:35	74.6	74.6	74.6	47	53.0	0	2	292	0.00	30.005 
19:40	74.2	74.2	74.2	47	52.7	0	2	292	0.00	30.005 
19:45	73.9	73.9	73.9	48	53.0	0	2	292	0.00	30.007 
19:50	73.5	73.5	73.5	49	53.2	0	1	292	0.00	30.009 
19:55	73.2	73.2	73.2	49	52.9	0	1	292	0.00	30.014 
20:00	72.8	72.8	72.8	49	52.5	0	1	292	0.00	30.015 
20:05	72.7	72.7	72.7	50	53.0	0	1	292	0.00	30.011 
20:10	72.3	72.3	72.3	50	52.6	0	1	292	0.00	30.012 
20:15	72.1	72.1	72.1	50	52.4	0	1	292	0.00	30.013 
20:20	71.8	71.8	71.8	51	52.7	0	1	292	0.00	30.014 
20:25	71.6	71.6	71.6	51	52.5	0	1	292	0.00	30.016 
20:30	71.3	71.3	71.3	52	52.8	0	1	292	0.00	30.018 
20:35	70.9	70.9	70.9	52	52.4	0	0	---	0.00	30.020 
20:40	70.6	70.6	70.6	53	52.6	0	0	---	0.00	30.020 
20:45	70.3	70.3	70.3	54	52.9	0	0	---	0.00	30.021 
20:50	69.9	69.9	69.9	55	53.0	0	0	---	0.00	30.023 
20:55	69.6	69.6	69.6	56	53.2	0	0	---	0.00	30.026 
21:00	69.1	69.1	69.1	56	52.7	0	0	---	0.00	30.027 
21:05	68.8	68.8	68.8	57	52.9	0	0	---	0.00	30.025 
21:10	68.3	68.3	68.3	58	52.9	0	0	---	0.00	30.028 
21:15	67.9	67.9	67.9	59	53.0	0	0	---	0.00	30.028 
21:20	67.4	67.4	67.4	60	53.0	0	0	---	0.00	30.027 
21:25	66.9	66.9	66.9	61	53.0	0	0	---	0.00	30.025 
21:30	66.6	66.6	66.6	62	53.2	0	0	---	0.00	30.021 
21:35	66.1	66.1	66.1	63	53.1	0	0	---	0.00	30.020 
21:40	65.6	65.6	65.6	64	53.1	0	1	292	0.00	30.021 
21:45	65.3	65.3	65.3	65	53.2	0	0	---	0.00	30.022 
21:50	64.8	64.8	64.8	65	52.8	0	0	---	0.00	30.024 
21:55	64.5	64.5	64.5	66	52.9	0	0	---	0.00	30.025 
22:00	64.2	64.2	64.2	68	53.4	0	0	---	0.00	30.028 
22:05	64.0	64.0	64.0	68	53.2	0	0	---	0.00	30.029 
22:10	63.7	63.7	63.7	69	53.3	0	0	---	0.00	30.029 
22:15	63.4	63.4	63.4	69	53.0	0	0	---	0.00	30.027 
22:20	63.2	63.2	63.2	70	53.2	0	0	---	0.00	30.028 
22:25	63.1	63.1	63.1	71	53.5	0	0	---	0.00	30.031 
22:30	62.7	62.7	62.7	72	53.5	0	0	---	0.00	30.029 
22:35	62.6	62.6	62.6	72	53.4	0	0	---	0.00	30.030 
22:40	62.3	62.3	62.3	73	53.5	0	0	---	0.00	30.032 
22:45	62.0	62.0	62.0	74	53.6	0	0	---	0.00	30.031 
22:50	61.8	61.8	61.8	74	53.4	0	0	---	0.00	30.030 
22:55	61.5	61.5	61.5	74	53.1	0	0	---	0.00	30.030 
23:00	61.3	61.3	61.3	76	53.7	0	0	---	0.00	30.030 
23:05	61.0	61.0	61.0	76	53.4	0	0	---	0.00	30.027 
23:10	60.9	60.9	60.9	77	53.6	0	0	---	0.00	30.028 
23:15	60.7	60.7	60.7	77	53.4	0	0	---	0.00	30.027 
23:20	60.5	60.5	60.5	77	53.2	0	0	---	0.00	30.026 
23:25	60.4	60.4	60.4	78	53.5	0	0	---	0.00	30.029 
23:30	60.2	60.2	60.2	79	53.7	0	0	---	0.00	30.032 
23:35	60.1	60.1	60.1	79	53.6	0	0	---	0.00	30.031 
23:40	59.9	59.9	59.9	79	53.4	0	0	---	0.00	30.029 
23:45	59.8	59.8	59.8	79	53.3	0	0	---	0.00	30.028 
23:50	59.6	59.6	59.6	79	53.1	0	0	---	0.00	30.028 
23:55	59.6	59.6	59.6	80	53.4	0	0	---	0.00	30.028 

CoCoRaHS
IN-AL-39
A2 Web Hosting
Creative Commons License
GoDaddy
Look for:

loaded 2017-12-13 02:31:33 • last modified 2010-11-18 10:43:29
Privacy PolicyDisclaimer
• wx.awcolley.com is powered by PmWiki v.2002016 •
• all content (unless otherwise noted) © 2017 A W Colley